createdAt,value
2022-08-18T00:01:50.864Z,12.75
2022-08-18T00:04:45.306Z,7.70
2022-08-18T00:07:38.734Z,7.30
2022-08-18T00:10:30.723Z,9.88
2022-08-18T00:13:19.575Z,10.00
2022-08-18T00:16:08.835Z,8.27
2022-08-18T00:18:58.358Z,9.27
2022-08-18T00:21:47.418Z,8.63
2022-08-18T00:24:38.795Z,8.30
2022-08-18T00:27:40.101Z,9.27
2022-08-18T00:30:28.854Z,10.38
2022-08-18T00:33:17.864Z,8.27
2022-08-18T00:36:07.225Z,8.63
2022-08-18T00:38:56.957Z,10.70
2022-08-18T00:41:45.919Z,10.48
2022-08-18T00:44:36.485Z,11.20
2022-08-18T00:47:41.301Z,11.75
2022-08-18T00:50:36.435Z,9.68
2022-08-18T00:53:29.518Z,10.02
2022-08-18T00:56:25.080Z,10.27
2022-08-18T00:59:19.081Z,11.43
2022-08-18T01:02:20.681Z,10.30
2022-08-18T01:05:15.746Z,11.52
2022-08-18T01:08:05.389Z,11.02
2022-08-18T01:10:56.117Z,8.52
2022-08-18T01:13:45.718Z,9.43
2022-08-18T01:16:56.880Z,12.73
2022-08-18T01:20:05.691Z,11.43
2022-08-18T01:23:04.882Z,15.82
2022-08-18T01:26:04.208Z,12.93
2022-08-18T01:28:54.450Z,10.70
2022-08-18T01:31:53.285Z,9.45
2022-08-18T01:34:48.361Z,12.88
2022-08-18T01:37:38.079Z,9.50
2022-08-18T01:41:17.422Z,7.25
2022-08-18T01:43:38.419Z,9.30
2022-08-18T01:46:28.363Z,8.93
2022-08-18T01:49:18.694Z,8.93
2022-08-18T01:52:08.489Z,9.35
2022-08-18T01:54:59.570Z,4.82
2022-08-18T01:57:50.385Z,3.50
2022-08-18T02:00:40.296Z,4.50
2022-08-18T02:03:32.664Z,6.78
2022-08-18T02:06:32.050Z,3.38
2022-08-18T02:09:23.886Z,5.03
2022-08-18T02:12:14.335Z,6.78
2022-08-18T02:15:05.736Z,9.77
2022-08-18T02:17:54.533Z,4.35
2022-08-18T02:20:44.829Z,7.15
2022-08-18T02:23:33.996Z,3.00
2022-08-18T02:26:23.328Z,4.78
2022-08-18T02:29:12.778Z,8.57
2022-08-18T02:32:03.608Z,3.35
2022-08-18T02:34:53.094Z,6.00
2022-08-18T02:37:45.670Z,4.65
2022-08-18T02:40:35.990Z,4.30
2022-08-18T02:43:25.631Z,4.80
2022-08-18T02:46:14.575Z,4.60
2022-08-18T02:49:06.151Z,3.20
2022-08-18T02:51:55.702Z,5.72
2022-08-18T02:54:45.192Z,4.25
2022-08-18T02:57:34.381Z,6.97
2022-08-18T03:00:23.627Z,5.65
2022-08-18T03:03:13.669Z,6.95
2022-08-18T03:06:03.855Z,7.97
2022-08-18T03:08:54.084Z,6.53
2022-08-18T06:39:47.890Z,7.18
2022-08-18T06:42:40.423Z,6.05
2022-08-18T06:45:35.882Z,10.23
2022-08-18T06:48:33.155Z,7.25
2022-08-18T06:51:24.734Z,6.13
2022-08-18T06:54:29.597Z,5.35
2022-08-18T06:57:30.428Z,5.22
2022-08-18T07:00:28.128Z,6.82
2022-08-18T07:03:22.457Z,5.13
2022-08-18T07:06:12.556Z,5.90
2022-08-18T07:09:21.863Z,5.53
2022-08-18T07:12:11.438Z,4.95
2022-08-18T07:15:02.900Z,4.90
2022-08-18T07:17:51.953Z,5.60
2022-08-18T07:20:45.745Z,4.82
2022-08-18T07:23:38.357Z,5.25
2022-08-18T07:26:27.561Z,6.22
2022-08-18T07:29:17.362Z,6.18
2022-08-18T07:32:21.338Z,9.80
2022-08-18T07:35:13.027Z,10.38
2022-08-18T07:38:18.630Z,9.07
2022-08-18T07:41:21.069Z,7.90
2022-08-18T07:44:18.896Z,6.90
2022-08-18T07:47:16.668Z,8.50
2022-08-18T07:50:31.591Z,8.48
2022-08-18T07:53:29.079Z,7.03
2022-08-18T07:56:25.977Z,5.00
2022-08-18T07:59:20.747Z,5.78
2022-08-18T08:02:23.466Z,9.55
2022-08-18T08:05:23.650Z,5.45
2022-08-18T08:08:25.339Z,7.38
2022-08-18T08:11:34.012Z,7.35
2022-08-18T08:14:43.203Z,14.68
2022-08-18T08:17:42.877Z,8.35
2022-08-18T08:20:36.372Z,7.15
2022-08-18T08:23:33.101Z,8.07
2022-08-18T08:26:38.178Z,10.40
2022-08-18T08:29:37.803Z,8.55
2022-08-18T08:32:34.540Z,8.48
2022-08-18T08:35:49.971Z,8.18
2022-08-18T08:38:45.894Z,5.10
2022-08-18T08:41:39.675Z,9.63
2022-08-18T08:44:58.137Z,8.48
2022-08-18T08:48:06.619Z,7.40
2022-08-18T08:51:02.530Z,10.80
2022-08-18T08:53:56.879Z,8.80
2022-08-18T08:56:48.835Z,7.30
2022-08-18T08:59:39.353Z,14.45
2022-08-18T09:02:57.121Z,12.70
2022-08-18T09:05:56.887Z,15.18
2022-08-18T09:08:56.523Z,10.95
2022-08-18T09:11:55.613Z,12.40
2022-08-18T09:15:10.593Z,19.55
2022-08-18T09:18:27.942Z,14.60
2022-08-18T09:21:31.347Z,10.68
2022-08-18T09:24:27.586Z,7.05
2022-08-18T09:27:31.190Z,2.75
2022-08-18T09:30:47.490Z,5.13
2022-08-18T09:34:07.185Z,2.30
2022-08-18T09:37:14.212Z,2.95
2022-08-18T09:40:51.336Z,4.47
2022-08-18T09:43:41.331Z,1.30
2022-08-18T09:46:55.863Z,2.92
2022-08-18T09:53:32.481Z,1.20
2022-08-18T09:57:00.630Z,3.22
2022-08-18T10:00:24.376Z,1.75
2022-08-18T10:03:31.149Z,1.38
2022-08-18T10:06:26.933Z,0.55
2022-08-18T10:09:36.823Z,1.23
2022-08-18T10:12:46.000Z,0.90
2022-08-18T10:15:49.561Z,1.60
2022-08-18T10:18:55.747Z,1.55
2022-08-18T10:22:07.097Z,0.22
2022-08-18T10:25:14.178Z,1.50
2022-08-18T10:28:11.812Z,0.40
2022-08-18T10:34:40.740Z,1.65
2022-08-18T10:37:46.255Z,3.25
2022-08-18T10:40:40.381Z,1.85
2022-08-18T10:43:45.667Z,1.95
2022-08-18T10:46:46.617Z,2.80
2022-08-18T10:49:38.201Z,2.33
2022-08-18T10:53:32.943Z,1.38
2022-08-18T10:56:30.901Z,1.00
2022-08-18T10:59:43.997Z,4.45
2022-08-18T11:03:42.721Z,2.28
2022-08-18T11:09:28.178Z,1.65
2022-08-18T11:12:43.981Z,1.08
2022-08-18T11:15:42.716Z,2.78
2022-08-18T11:21:51.600Z,0.40
2022-08-18T11:24:46.637Z,0.63
2022-08-18T11:27:37.313Z,1.02
2022-08-18T11:30:48.812Z,0.77
2022-08-18T11:33:42.367Z,0.57
2022-08-18T11:36:32.947Z,1.15
2022-08-18T11:39:35.924Z,4.20
2022-08-18T11:42:33.792Z,0.10
2022-08-18T11:45:30.663Z,0.70
2022-08-18T11:48:46.231Z,3.08
2022-08-18T11:51:56.233Z,1.70
2022-08-18T11:54:50.570Z,0.32
2022-08-18T11:57:51.995Z,1.85
2022-08-18T12:01:01.559Z,0.55
2022-08-18T12:03:52.355Z,0.82
2022-08-18T12:10:18.261Z,1.90
2022-08-18T12:13:07.933Z,0.47
2022-08-18T12:16:14.711Z,1.58
2022-08-18T12:19:05.393Z,2.80
2022-08-18T12:22:03.181Z,0.85
2022-08-18T12:25:01.011Z,0.90
2022-08-18T12:27:50.394Z,3.08
2022-08-18T12:30:42.252Z,4.53
2022-08-18T12:36:43.615Z,2.67
2022-08-18T12:39:33.788Z,4.40
2022-08-18T12:42:24.198Z,4.53
2022-08-18T12:45:13.929Z,3.13
2022-08-18T12:48:04.037Z,4.47
2022-08-18T12:50:59.638Z,4.25
2022-08-18T12:53:59.415Z,3.13
2022-08-18T12:56:50.962Z,4.30
2022-08-18T12:59:40.302Z,2.80
2022-08-18T13:02:31.013Z,1.42
2022-08-18T13:05:27.375Z,1.48
2022-08-18T13:08:27.535Z,1.83
2022-08-18T13:11:23.841Z,1.70
2022-08-18T13:14:15.202Z,3.03
2022-08-18T13:17:05.404Z,1.55
2022-08-18T13:19:58.582Z,1.02
2022-08-18T13:22:50.224Z,0.98
2022-08-18T13:25:42.228Z,3.20
2022-08-18T13:28:57.953Z,1.45
2022-08-18T13:31:55.494Z,1.55
2022-08-18T13:34:49.954Z,0.70
2022-08-18T13:37:39.408Z,1.75
2022-08-18T13:40:29.429Z,1.13
2022-08-18T13:43:23.468Z,1.58
2022-08-18T13:46:14.563Z,1.60
2022-08-18T13:49:04.749Z,1.38
2022-08-18T13:52:00.873Z,0.60
2022-08-18T13:54:53.325Z,0.68
2022-08-18T13:57:49.828Z,1.67
2022-08-18T14:00:41.223Z,1.33
2022-08-18T14:03:46.902Z,1.25
2022-08-18T14:06:36.794Z,0.73
2022-08-18T14:09:38.053Z,0.63
2022-08-18T14:12:32.716Z,1.00
2022-08-18T14:15:23.351Z,1.15
2022-08-18T14:18:16.360Z,2.55
2022-08-18T14:21:23.401Z,2.53
2022-08-18T14:24:30.333Z,1.67
2022-08-18T14:27:18.865Z,1.05
2022-08-18T14:30:11.497Z,2.38
2022-08-18T14:33:03.561Z,1.33
2022-08-18T14:36:06.085Z,0.60
2022-08-18T14:38:58.302Z,2.30
2022-08-18T14:41:54.604Z,1.40
2022-08-18T14:44:45.971Z,2.10
2022-08-18T14:47:37.214Z,1.73
2022-08-18T14:50:27.021Z,1.25
2022-08-18T14:53:20.597Z,2.63
2022-08-18T14:56:12.544Z,3.08
2022-08-18T14:59:01.849Z,1.17
2022-08-18T15:01:51.498Z,2.60
2022-08-18T15:04:53.043Z,1.50
2022-08-18T15:07:47.055Z,3.35
2022-08-18T15:10:42.978Z,3.65
2022-08-18T15:13:32.279Z,1.17
2022-08-18T15:16:31.503Z,2.05
2022-08-18T15:19:57.538Z,2.15
2022-08-18T15:22:49.562Z,2.25
2022-08-18T15:25:45.017Z,3.20
2022-08-18T15:28:34.475Z,1.70
2022-08-18T15:34:32.876Z,4.47
2022-08-18T15:37:36.969Z,3.58
2022-08-18T18:15:45.508Z,2.13
2022-08-18T18:18:42.082Z,1.48
2022-08-18T18:22:00.383Z,5.43
2022-08-18T18:24:51.813Z,1.90
2022-08-18T18:27:43.175Z,2.83
2022-08-18T18:30:32.934Z,3.22
2022-08-18T18:33:23.064Z,4.25
2022-08-18T18:36:14.235Z,2.05
2022-08-18T18:39:10.636Z,2.70
2022-08-18T18:42:15.177Z,2.80
2022-08-18T18:45:10.010Z,2.80
2022-08-18T18:48:07.128Z,2.00
2022-08-18T18:51:10.838Z,2.25
2022-08-18T18:54:14.157Z,3.30
2022-08-18T18:57:12.458Z,2.20
2022-08-18T19:00:18.172Z,3.22
2022-08-18T19:03:17.209Z,3.08
2022-08-18T19:06:20.788Z,3.78
2022-08-18T19:09:19.927Z,2.40
2022-08-18T19:12:20.178Z,2.47
2022-08-18T19:15:15.127Z,5.10
2022-08-18T19:18:06.728Z,5.30
2022-08-18T19:22:01.969Z,3.95
2022-08-18T19:24:18.714Z,2.38
2022-08-18T19:27:16.980Z,2.47
2022-08-18T19:30:16.295Z,2.80
2022-08-18T19:33:07.690Z,5.47
2022-08-18T19:36:04.047Z,3.25
2022-08-18T19:39:05.777Z,2.90
2022-08-18T19:42:00.318Z,4.85
2022-08-18T19:45:15.914Z,2.97
2022-08-18T19:48:15.160Z,3.05
2022-08-18T19:51:12.702Z,4.03
2022-08-18T19:54:22.502Z,4.18
2022-08-18T19:57:29.612Z,5.65
2022-08-18T20:00:32.179Z,2.75
2022-08-18T20:03:48.055Z,6.88
2022-08-18T20:06:56.126Z,3.80
2022-08-18T20:10:01.544Z,4.70
2022-08-18T20:13:13.582Z,2.60
2022-08-18T20:16:28.644Z,3.42
2022-08-18T20:20:07.473Z,3.33
2022-08-18T20:22:58.646Z,3.92
2022-08-18T20:25:48.573Z,4.15
2022-08-18T20:28:42.030Z,6.47
2022-08-18T20:31:52.075Z,6.15
2022-08-18T20:34:49.307Z,5.60
2022-08-18T20:37:38.645Z,7.55
2022-08-18T20:40:44.987Z,4.90
2022-08-18T20:43:36.041Z,4.47
2022-08-18T20:46:41.390Z,4.78
2022-08-18T20:49:50.186Z,6.63
2022-08-18T20:52:43.214Z,4.20
2022-08-18T20:55:44.429Z,6.88
2022-08-18T20:58:39.474Z,4.80
2022-08-18T21:01:30.975Z,4.90
2022-08-18T21:04:33.709Z,8.73
2022-08-18T21:07:36.330Z,7.97
2022-08-18T21:10:29.824Z,9.55
2022-08-18T21:13:36.970Z,4.70
2022-08-18T21:16:39.280Z,9.93
2022-08-18T21:19:30.222Z,6.65
2022-08-18T21:22:20.899Z,7.68
2022-08-18T21:25:13.485Z,6.22
2022-08-18T21:28:04.129Z,9.52
2022-08-18T21:31:42.231Z,7.47
2022-08-18T21:34:11.681Z,9.40
2022-08-18T21:37:08.104Z,6.90
2022-08-18T21:40:00.022Z,6.15
2022-08-18T21:42:49.268Z,7.50
2022-08-18T21:45:47.648Z,8.32
2022-08-18T21:48:42.285Z,9.18
2022-08-18T21:51:44.271Z,6.22
2022-08-18T21:54:35.847Z,7.65
2022-08-18T21:57:30.113Z,9.05
2022-08-18T22:00:26.021Z,7.90
2022-08-18T22:03:21.409Z,5.70
2022-08-18T22:06:18.816Z,9.07
2022-08-18T22:09:36.477Z,9.38
2022-08-18T22:12:48.536Z,9.88
2022-08-18T22:15:42.739Z,10.43
2022-08-18T22:18:38.774Z,12.23
2022-08-18T22:21:38.398Z,9.70
2022-08-18T22:24:35.789Z,13.07
2022-08-18T22:27:27.167Z,9.32
2022-08-18T22:30:16.273Z,11.40
2022-08-18T22:33:05.098Z,9.43
2022-08-18T22:35:57.926Z,8.35
2022-08-18T22:38:47.571Z,9.68
2022-08-18T22:41:38.538Z,12.40
2022-08-18T22:44:28.547Z,11.07
2022-08-18T22:47:18.210Z,16.35
2022-08-18T22:50:08.627Z,16.35
2022-08-18T22:52:57.518Z,11.18
2022-08-18T22:55:46.534Z,10.88
2022-08-18T22:58:37.244Z,10.27
2022-08-18T23:01:30.217Z,11.55
2022-08-18T23:04:21.887Z,13.77
2022-08-18T23:07:11.404Z,14.45
2022-08-18T23:10:01.062Z,20.50
2022-08-18T23:12:51.087Z,17.38
2022-08-18T23:15:49.156Z,18.90
2022-08-18T23:18:38.640Z,14.35
2022-08-18T23:21:33.770Z,14.73
2022-08-18T23:24:25.126Z,16.13
2022-08-18T23:27:14.190Z,19.83
2022-08-18T23:30:03.034Z,18.70
2022-08-18T23:32:55.260Z,18.95
2022-08-18T23:35:45.479Z,18.00
2022-08-18T23:38:38.217Z,20.58
2022-08-18T23:41:27.736Z,22.65
2022-08-18T23:44:16.833Z,21.42
2022-08-18T23:47:06.415Z,20.65
2022-08-18T23:49:57.861Z,19.05
2022-08-18T23:52:48.030Z,18.77
2022-08-18T23:55:38.807Z,16.45
2022-08-18T23:58:27.879Z,23.50
